Indianapolis, IN

4:35 AM EST on December 09, 2016 (GMT -0500)
Christian Park | | Change Station

Elev 791 ft 39.77 °N, 86.10 °W | Updated 24 seconds ago

Snow
Snow
20.3 °F
Feels Like 20 °F
N
2.0
Wind Variable Wind from West
Gusts 3.0 mph

Today
High -- | Low -- °F
--% Chance of Precip.
Yesterday
High -- | Low -- °F
Precip. -- in
Pressure 30.52 in
Visibility 6.0 miles
Clouds Overcast 2800 ft
Windchill 20 °F
Dew Point 16 °F
Humidity 85%
Rainfall 0.00 in
Snow Depth Not available.
7:54 AM 5:19 PM
Waxing Gibbous, 72% visible
METAR KEYE 090853Z AUTO 26007KT 6SM -SN OVC028 M06/M09 A3048 RMK AO2 SLP334 P0000 60000 T10611089 53007
Pressure 30.52 in
Visibility 6.0 miles
Clouds Overcast 2800 ft
Windchill 20 °F
Dew Point 16 °F
Humidity 85%
Rainfall 0.00 in
Snow Depth Not available.
7:54 AM 5:19 PM
Waxing Gibbous, 72% visible
METAR KEYE 090853Z AUTO 26007KT 6SM -SN OVC028 M06/M09 A3048 RMK AO2 SLP334 P0000 60000 T10611089 53007

10-Day Weather Forecast

Almanac

Astronomy

Dec. 09, 2016 Rise Set
Actual Time
Civil Twilight
Nautical Twilight
Astronomical Twilight
Moon
Length of Visible Light
Length of Day
Tomorrow will be .
, % of the Moon is Illuminated

Today's Extremes

State Highs State Lows

Community

WunderPhotos

Upload Photos

1,956,371 photos uploaded!

WunderBlog® & News

Nearby

Air Quality

  Air Quality AQ Index Pollutant
Not available.

Snow Depth

Station Depth Elevation

Earthquake Activity

City Distance Mag. Time & Date
Minimum magnitude displayed is 2.5.

Coastal Water Temperatures

Place Temperature

Stations

Nearby Weather Stations

Station Location Temp. Windchill Dew Point Humidity Wind Precip. Elev Updated Type
                   

Watches & Warnings

There are currently no watches in effect.